Time;durP1;ratioP1;P1;durP2;ratioP2;P2;SDS_P1;SDS_P2;PMS_P1;PMS_P2;Temp;Humidity;BMP_temperature;BMP_pressure;BME280_temperature;BME280_humidity;BME280_pressure;Samples;Min_cycle;Max_cycle;Signal;HPM_P1;HPM_P2
2022/07/06 00:01:58;;;;;;;6.15;2.20;;;;;;;;;;5050905;23;20053;-63
2022/07/06 00:04:24;;;;;;;5.18;1.90;;;;;;;;;;5034624;28;20406;-66
2022/07/06 00:06:50;;;;;;;5.60;2.00;;;;;;;;;;5034643;28;20036;-68
2022/07/06 00:09:16;;;;;;;3.88;2.03;;;;;;;;;;5034738;28;20057;-64
2022/07/06 00:11:42;;;;;;;5.60;1.85;;;;;;;;;;5034622;28;20488;-69
2022/07/06 00:14:07;;;;;;;6.97;2.63;;;;;;;;;;5034431;28;20021;-66
2022/07/06 00:16:33;;;;;;;4.00;1.95;;;;;;;;;;5034504;28;20478;-65
2022/07/06 00:18:59;;;;;;;7.97;2.33;;;;;;;;;;5034568;28;20023;-66
2022/07/06 00:21:24;;;;;;;5.78;2.30;;;;;;;;;;5039461;28;20075;-67
2022/07/06 00:23:51;;;;;;;4.00;2.05;;;;;;;;;;5054436;28;20056;-63
2022/07/06 00:26:20;;;;;;;5.10;1.90;;;;;;;;;;5053769;28;20021;-65
2022/07/06 00:28:45;;;;;;;4.28;1.98;;;;;;;;;;5054293;28;20025;-67
2022/07/06 00:31:11;;;;;;;4.93;1.85;;;;;;;;;;5054397;28;20047;-68
2022/07/06 00:33:37;;;;;;;3.22;1.60;;;;;;;;;;5053823;28;20052;-67
2022/07/06 00:36:03;;;;;;;3.13;1.50;;;;;;;;;;5052506;28;20385;-68
2022/07/06 00:38:29;;;;;;;3.88;1.70;;;;;;;;;;5053701;28;20029;-65
2022/07/06 00:40:54;;;;;;;3.53;1.70;;;;;;;;;;5054153;28;20020;-64
2022/07/06 00:43:20;;;;;;;3.05;1.65;;;;;;;;;;5054061;28;20082;-64
2022/07/06 00:45:46;;;;;;;3.60;1.40;;;;;;;;;;5053701;28;20040;-62
2022/07/06 00:48:12;;;;;;;8.18;1.80;;;;;;;;;;5053711;28;20040;-64
2022/07/06 00:50:37;;;;;;;3.22;1.40;;;;;;;;;;5053645;28;20038;-65
2022/07/06 00:53:05;;;;;;;3.22;1.23;;;;;;;;;;5053867;28;20141;-64
2022/07/06 00:55:41;;;;;;;3.42;1.35;;;;;;;;;;5053342;28;20041;-64
2022/07/06 00:58:08;;;;;;;3.67;1.50;;;;;;;;;;5053254;28;20025;-66
2022/07/06 01:00:35;;;;;;;6.03;1.70;;;;;;;;;;5053199;28;20163;-66
2022/07/06 01:03:01;;;;;;;5.18;1.75;;;;;;;;;;5042183;28;20437;-67
2022/07/06 01:05:28;;;;;;;7.28;1.75;;;;;;;;;;5033363;28;20463;-64
2022/07/06 01:07:54;;;;;;;7.38;1.60;;;;;;;;;;5030584;28;20095;-65
2022/07/06 01:10:21;;;;;;;3.97;1.88;;;;;;;;;;5033286;28;20034;-68
2022/07/06 01:12:48;;;;;;;3.05;1.60;;;;;;;;;;5033389;28;20043;-68
2022/07/06 01:15:19;;;;;;;6.15;1.60;;;;;;;;;;5033267;28;20038;-65
2022/07/06 01:17:45;;;;;;;4.32;1.50;;;;;;;;;;5033339;28;20036;-62
2022/07/06 01:20:23;;;;;;;3.00;1.48;;;;;;;;;;5032950;28;20025;-67
2022/07/06 01:22:50;;;;;;;4.90;2.10;;;;;;;;;;5031825;28;20026;-65
2022/07/06 01:25:17;;;;;;;6.72;1.70;;;;;;;;;;5033293;28;20108;-62
2022/07/06 01:27:43;;;;;;;4.80;1.45;;;;;;;;;;5031809;28;20435;-62
2022/07/06 01:30:11;;;;;;;6.43;1.70;;;;;;;;;;5032911;28;20107;-67
2022/07/06 01:32:38;;;;;;;5.30;2.03;;;;;;;;;;5032403;28;20030;-65
2022/07/06 01:35:06;;;;;;;2.03;1.30;;;;;;;;;;5032795;28;20132;-67
2022/07/06 01:37:32;;;;;;;9.00;1.42;;;;;;;;;;5033103;28;20427;-69
2022/07/06 01:39:59;;;;;;;10.45;1.77;;;;;;;;;;5032928;28;20060;-68
2022/07/06 01:42:25;;;;;;;3.03;1.58;;;;;;;;;;5032855;28;20553;-69
2022/07/06 01:44:51;;;;;;;3.60;1.60;;;;;;;;;;5032939;28;20104;-68
2022/07/06 01:47:16;;;;;;;9.02;1.50;;;;;;;;;;5032888;28;20028;-68
2022/07/06 01:49:42;;;;;;;9.35;1.63;;;;;;;;;;5032710;28;20135;-68
2022/07/06 01:52:07;;;;;;;8.82;2.92;;;;;;;;;;5032557;28;20045;-69
2022/07/06 01:54:33;;;;;;;8.38;2.05;;;;;;;;;;5032713;28;20021;-66
2022/07/06 01:56:59;;;;;;;2.70;1.40;;;;;;;;;;5032933;28;20410;-69
2022/07/06 01:59:24;;;;;;;4.35;1.55;;;;;;;;;;5032683;28;20466;-69
2022/07/06 02:01:50;;;;;;;5.70;1.60;;;;;;;;;;5032469;28;20391;-68
2022/07/06 02:04:15;;;;;;;4.72;1.60;;;;;;;;;;5032409;28;20049;-69
2022/07/06 02:06:41;;;;;;;6.60;1.73;;;;;;;;;;5032766;28;20029;-68
2022/07/06 02:09:06;;;;;;;3.40;1.35;;;;;;;;;;5019207;28;20088;-69
2022/07/06 02:11:32;;;;;;;2.95;1.73;;;;;;;;;;5012966;28;20438;-70
2022/07/06 02:13:57;;;;;;;3.78;1.70;;;;;;;;;;5012805;28;20033;-63
2022/07/06 02:16:23;;;;;;;3.90;1.17;;;;;;;;;;5012829;28;20090;-67
2022/07/06 02:18:48;;;;;;;3.60;1.10;;;;;;;;;;5012587;28;20034;-62
2022/07/06 02:21:14;;;;;;;6.10;1.40;;;;;;;;;;5017329;28;20022;-64
2022/07/06 02:23:39;;;;;;;3.47;1.20;;;;;;;;;;5031514;28;20076;-65
2022/07/06 02:26:05;;;;;;;8.07;1.50;;;;;;;;;;5029577;28;20120;-63
2022/07/06 02:28:31;;;;;;;2.53;1.27;;;;;;;;;;5022414;28;20467;-64
2022/07/06 02:30:56;;;;;;;4.38;1.13;;;;;;;;;;5020304;28;20021;-62
2022/07/06 02:33:22;;;;;;;3.95;1.27;;;;;;;;;;5020309;28;20430;-64
2022/07/06 02:35:47;;;;;;;6.63;1.42;;;;;;;;;;5020746;28;20030;-68
2022/07/06 02:38:13;;;;;;;3.60;1.38;;;;;;;;;;5022264;28;20581;-63
2022/07/06 02:40:39;;;;;;;3.22;1.17;;;;;;;;;;5020338;28;20053;-68
2022/07/06 02:43:04;;;;;;;6.10;1.42;;;;;;;;;;5021753;28;20132;-67
2022/07/06 02:45:30;;;;;;;6.53;1.70;;;;;;;;;;5026064;28;20491;-67
2022/07/06 02:47:57;;;;;;;5.88;1.52;;;;;;;;;;5024018;28;20112;-65
2022/07/06 02:50:23;;;;;;;8.38;1.60;;;;;;;;;;5025548;28;20021;-64
2022/07/06 02:52:48;;;;;;;4.68;1.63;;;;;;;;;;5025685;28;20037;-67
2022/07/06 02:55:14;;;;;;;5.75;1.60;;;;;;;;;;5024033;28;20026;-67
2022/07/06 02:57:39;;;;;;;4.63;1.40;;;;;;;;;;5025850;28;20071;-64
2022/07/06 03:00:06;;;;;;;6.97;1.20;;;;;;;;;;5025118;28;20022;-69
2022/07/06 03:02:31;;;;;;;8.27;1.40;;;;;;;;;;5035300;28;20045;-69
2022/07/06 03:04:57;;;;;;;4.13;1.45;;;;;;;;;;5036095;28;20379;-69
2022/07/06 03:07:23;;;;;;;12.70;5.22;;;;;;;;;;5036178;28;20022;-66
2022/07/06 03:09:48;;;;;;;8.50;1.63;;;;;;;;;;5035999;28;20032;-67
2022/07/06 03:12:14;;;;;;;3.25;1.30;;;;;;;;;;5036120;28;20378;-69
2022/07/06 03:14:39;;;;;;;7.30;1.35;;;;;;;;;;5035904;28;20032;-69
2022/07/06 03:17:05;;;;;;;6.97;1.40;;;;;;;;;;5035648;28;20356;-68
2022/07/06 03:19:30;;;;;;;9.68;1.67;;;;;;;;;;5035938;28;20591;-68
2022/07/06 03:21:56;;;;;;;9.30;1.48;;;;;;;;;;5035673;28;20025;-68
2022/07/06 03:24:21;;;;;;;9.50;1.83;;;;;;;;;;5035580;28;20025;-65
2022/07/06 03:26:47;;;;;;;5.10;1.30;;;;;;;;;;5035820;28;20026;-68
2022/07/06 03:29:12;;;;;;;5.65;1.58;;;;;;;;;;5035829;28;20025;-67
2022/07/06 03:31:38;;;;;;;6.35;1.58;;;;;;;;;;5035587;28;20113;-68
2022/07/06 03:34:04;;;;;;;6.85;1.75;;;;;;;;;;5035625;28;20030;-67
2022/07/06 03:36:29;;;;;;;3.75;1.27;;;;;;;;;;5035424;28;20028;-66
2022/07/06 03:38:55;;;;;;;6.93;1.65;;;;;;;;;;5034576;28;20038;-67
2022/07/06 03:41:20;;;;;;;4.65;1.00;;;;;;;;;;5034491;28;20034;-67
2022/07/06 03:43:46;;;;;;;7.05;1.30;;;;;;;;;;5034319;28;20079;-68
2022/07/06 03:46:11;;;;;;;11.38;1.40;;;;;;;;;;5034688;28;20091;-68
2022/07/06 03:48:37;;;;;;;5.90;1.23;;;;;;;;;;5034072;28;20083;-68
2022/07/06 03:51:02;;;;;;;4.07;1.23;;;;;;;;;;5035290;28;20087;-68
2022/07/06 03:53:28;;;;;;;5.10;1.23;;;;;;;;;;5035219;28;20025;-69
2022/07/06 03:58:37;;;;;;;6.85;1.40;;;;;;;;;;5034997;28;20505;-67
2022/07/06 04:01:03;;;;;;;5.10;1.48;;;;;;;;;;5034992;28;20038;-66
2022/07/06 04:03:28;;;;;;;3.13;1.10;;;;;;;;;;5034994;28;20025;-65
2022/07/06 04:05:54;;;;;;;6.13;1.20;;;;;;;;;;5035166;28;20501;-65
2022/07/06 04:08:20;;;;;;;5.18;1.45;;;;;;;;;;5034854;28;20021;-65
2022/07/06 04:10:46;;;;;;;4.97;1.38;;;;;;;;;;5034330;28;20036;-67
2022/07/06 04:13:11;;;;;;;4.25;1.25;;;;;;;;;;5033783;28;20034;-69
2022/07/06 04:15:37;;;;;;;4.97;1.30;;;;;;;;;;5033910;28;20025;-69
2022/07/06 04:18:03;;;;;;;7.78;1.40;;;;;;;;;;5033885;28;20356;-69
2022/07/06 04:20:29;;;;;;;4.45;1.17;;;;;;;;;;5034481;28;20033;-69
2022/07/06 04:22:54;;;;;;;9.25;1.70;;;;;;;;;;5034734;28;20033;-68
2022/07/06 04:25:20;;;;;;;9.82;2.25;;;;;;;;;;5034487;28;20116;-67
2022/07/06 04:27:45;;;;;;;5.60;1.30;;;;;;;;;;5034495;28;20036;-69
2022/07/06 04:30:11;;;;;;;8.90;1.42;;;;;;;;;;5034193;28;20088;-66
2022/07/06 04:32:37;;;;;;;4.78;1.38;;;;;;;;;;5034541;28;20022;-69
2022/07/06 04:35:04;;;;;;;7.45;1.60;;;;;;;;;;5034477;28;20022;-68
2022/07/06 04:37:30;;;;;;;7.45;1.77;;;;;;;;;;5034499;28;20397;-67
2022/07/06 04:39:56;;;;;;;8.52;2.10;;;;;;;;;;5034230;28;20017;-68
2022/07/06 04:42:21;;;;;;;2.72;1.02;;;;;;;;;;5033284;28;20497;-67
2022/07/06 04:44:47;;;;;;;3.25;1.00;;;;;;;;;;5033305;28;20045;-69
2022/07/06 04:47:13;;;;;;;4.10;1.52;;;;;;;;;;5033454;28;20040;-67
2022/07/06 04:49:38;;;;;;;6.40;1.40;;;;;;;;;;5033686;28;20029;-67
2022/07/06 04:52:05;;;;;;;8.32;1.48;;;;;;;;;;5033878;28;20040;-68
2022/07/06 04:54:30;;;;;;;5.90;1.20;;;;;;;;;;5034040;28;20355;-69
2022/07/06 04:56:56;;;;;;;7.63;1.55;;;;;;;;;;5033939;28;20033;-66
2022/07/06 04:59:22;;;;;;;4.78;1.20;;;;;;;;;;5033938;28;20034;-66
2022/07/06 05:01:47;;;;;;;6.43;1.10;;;;;;;;;;5033724;28;20045;-65
2022/07/06 05:04:13;;;;;;;3.97;1.20;;;;;;;;;;5033893;28;20120;-66
2022/07/06 05:06:39;;;;;;;3.65;1.30;;;;;;;;;;5032976;28;20049;-65
2022/07/06 05:09:05;;;;;;;4.32;1.17;;;;;;;;;;5032881;28;20021;-65
2022/07/06 05:11:31;;;;;;;7.90;1.75;;;;;;;;;;5032725;28;20463;-66
2022/07/06 05:13:56;;;;;;;3.70;1.00;;;;;;;;;;5032924;28;20383;-67
2022/07/06 05:16:22;;;;;;;3.95;1.20;;;;;;;;;;5032854;28;20064;-65
2022/07/06 05:18:48;;;;;;;3.83;1.10;;;;;;;;;;5033606;28;20021;-63
2022/07/06 05:21:14;;;;;;;7.07;1.30;;;;;;;;;;5033481;28;20072;-64
2022/07/06 05:23:39;;;;;;;6.22;1.23;;;;;;;;;;5033656;28;20033;-64
2022/07/06 05:26:05;;;;;;;3.35;1.13;;;;;;;;;;5033330;28;20442;-64
2022/07/06 05:28:31;;;;;;;5.18;1.20;;;;;;;;;;5033523;28;20087;-63
2022/07/06 05:30:56;;;;;;;4.05;1.00;;;;;;;;;;5033285;28;20463;-64
2022/07/06 05:33:22;;;;;;;3.33;1.38;;;;;;;;;;5033628;28;20045;-67
2022/07/06 05:35:47;;;;;;;7.40;1.35;;;;;;;;;;5033500;28;20471;-65
2022/07/06 05:38:13;;;;;;;4.13;1.30;;;;;;;;;;5033433;28;20454;-62
2022/07/06 05:40:39;;;;;;;6.65;1.20;;;;;;;;;;5032664;28;20104;-63
2022/07/06 05:43:04;;;;;;;3.65;1.10;;;;;;;;;;5032473;28;20033;-65
2022/07/06 05:45:30;;;;;;;4.40;1.00;;;;;;;;;;5032333;28;20492;-68
2022/07/06 05:50:39;;;;;;;4.07;1.23;;;;;;;;;;5032831;28;20036;-63
2022/07/06 05:53:05;;;;;;;3.97;1.30;;;;;;;;;;5033011;28;20026;-65
2022/07/06 05:55:31;;;;;;;4.68;1.20;;;;;;;;;;5032719;28;20251;-66
2022/07/06 05:57:57;;;;;;;3.53;0.88;;;;;;;;;;5033097;28;20371;-66
2022/07/06 06:00:24;;;;;;;4.50;1.20;;;;;;;;;;5033000;28;20459;-67
2022/07/06 06:02:51;;;;;;;3.38;1.38;;;;;;;;;;5032647;28;20049;-68
2022/07/06 06:05:17;;;;;;;8.88;1.60;;;;;;;;;;5032654;28;20029;-69
2022/07/06 06:07:44;;;;;;;4.38;1.20;;;;;;;;;;5031947;28;20415;-68
2022/07/06 06:10:12;;;;;;;7.05;1.25;;;;;;;;;;5031676;28;20029;-67
2022/07/06 06:12:39;;;;;;;2.70;0.90;;;;;;;;;;5031850;28;20083;-70
2022/07/06 06:15:05;;;;;;;5.60;1.20;;;;;;;;;;5032085;28;20101;-66
2022/07/06 06:17:32;;;;;;;5.45;1.13;;;;;;;;;;5032592;28;20048;-65
2022/07/06 06:19:58;;;;;;;5.13;1.13;;;;;;;;;;5032423;28;20104;-69
2022/07/06 06:22:23;;;;;;;4.55;1.10;;;;;;;;;;5031228;28;20064;-68
2022/07/06 06:24:49;;;;;;;4.70;1.10;;;;;;;;;;5032493;28;20030;-68
2022/07/06 06:27:15;;;;;;;8.15;1.55;;;;;;;;;;5032649;28;20026;-64
2022/07/06 06:29:44;;;;;;;4.07;1.10;;;;;;;;;;5032594;28;20025;-61
2022/07/06 06:32:11;;;;;;;6.90;1.10;;;;;;;;;;5032377;28;20040;-61
2022/07/06 06:34:37;;;;;;;4.72;1.00;;;;;;;;;;5032415;28;20022;-67
2022/07/06 06:37:03;;;;;;;4.28;1.20;;;;;;;;;;5032554;28;20364;-65
2022/07/06 06:39:29;;;;;;;9.32;1.02;;;;;;;;;;5032139;28;20084;-68
2022/07/06 06:41:55;;;;;;;8.05;1.10;;;;;;;;;;5031671;28;20034;-69
2022/07/06 06:44:23;;;;;;;5.63;0.80;;;;;;;;;;5031563;28;20034;-68
2022/07/06 06:46:49;;;;;;;5.15;1.25;;;;;;;;;;5031373;28;20037;-61
2022/07/06 06:49:15;;;;;;;3.80;1.15;;;;;;;;;;5031579;28;20030;-67
2022/07/06 06:51:41;;;;;;;2.55;0.80;;;;;;;;;;5032383;28;20048;-69
2022/07/06 06:54:06;;;;;;;2.30;0.80;;;;;;;;;;5031972;28;20032;-68
2022/07/06 06:56:32;;;;;;;4.05;1.10;;;;;;;;;;5032227;28;20035;-67
2022/07/06 06:58:57;;;;;;;4.05;1.30;;;;;;;;;;5032412;28;20064;-67
2022/07/06 07:01:23;;;;;;;3.38;0.90;;;;;;;;;;5021131;28;20057;-68
2022/07/06 07:03:51;;;;;;;6.53;0.95;;;;;;;;;;5025100;28;20042;-68
2022/07/06 07:06:16;;;;;;;3.03;0.88;;;;;;;;;;5029294;28;20411;-67
2022/07/06 07:08:42;;;;;;;2.60;0.80;;;;;;;;;;5030778;28;20033;-68
2022/07/06 07:11:07;;;;;;;4.10;0.85;;;;;;;;;;5014596;28;20047;-67
2022/07/06 07:13:33;;;;;;;4.40;1.00;;;;;;;;;;5011995;28;20034;-67
2022/07/06 07:15:59;;;;;;;4.82;0.88;;;;;;;;;;5011946;28;20634;-66
2022/07/06 07:18:24;;;;;;;2.08;0.77;;;;;;;;;;5012193;28;20309;-68
2022/07/06 07:20:50;;;;;;;4.35;1.30;;;;;;;;;;5013052;28;20276;-66
2022/07/06 07:23:15;;;;;;;2.28;1.00;;;;;;;;;;5031737;28;20022;-64
2022/07/06 07:25:41;;;;;;;5.63;1.08;;;;;;;;;;5031406;28;20108;-68
2022/07/06 07:28:06;;;;;;;3.60;0.85;;;;;;;;;;5031826;28;20439;-68
2022/07/06 07:30:32;;;;;;;6.13;1.15;;;;;;;;;;5033034;28;20029;-68
2022/07/06 07:33:00;;;;;;;2.22;1.08;;;;;;;;;;5035516;28;20029;-68
2022/07/06 07:35:25;;;;;;;1.08;0.70;;;;;;;;;;5027658;28;20025;-69
2022/07/06 07:37:51;;;;;;;4.00;1.02;;;;;;;;;;5015157;28;20096;-67
2022/07/06 07:40:17;;;;;;;5.90;0.70;;;;;;;;;;5015616;28;20026;-66
2022/07/06 07:42:43;;;;;;;5.15;1.08;;;;;;;;;;5015549;28;20026;-67
2022/07/06 07:45:09;;;;;;;3.70;1.08;;;;;;;;;;5015409;28;20419;-68
2022/07/06 07:47:34;;;;;;;6.53;1.00;;;;;;;;;;5015224;28;20060;-62
2022/07/06 07:50:00;;;;;;;4.38;1.00;;;;;;;;;;5015208;28;20124;-62
2022/07/06 07:52:25;;;;;;;13.10;1.13;;;;;;;;;;5015228;28;20034;-62
2022/07/06 07:54:51;;;;;;;2.63;0.70;;;;;;;;;;5015237;28;20487;-68
2022/07/06 07:57:17;;;;;;;4.05;0.90;;;;;;;;;;5015340;28;20077;-68
2022/07/06 07:59:43;;;;;;;2.20;0.70;;;;;;;;;;5015202;28;20480;-68
2022/07/06 08:02:08;;;;;;;3.70;0.90;;;;;;;;;;5026609;28;20045;-68
2022/07/06 08:04:34;;;;;;;3.47;1.08;;;;;;;;;;5034853;28;20029;-68
2022/07/06 08:07:00;;;;;;;2.53;0.90;;;;;;;;;;5034807;28;20044;-67
2022/07/06 08:09:25;;;;;;;2.65;0.90;;;;;;;;;;5034864;28;20022;-68
2022/07/06 08:11:51;;;;;;;2.85;0.82;;;;;;;;;;5034654;28;20032;-68
2022/07/06 08:14:16;;;;;;;2.53;0.73;;;;;;;;;;5034563;28;20025;-66
2022/07/06 08:16:43;;;;;;;1.50;0.63;;;;;;;;;;5034376;28;20045;-66
2022/07/06 08:19:09;;;;;;;4.78;1.00;;;;;;;;;;5034713;28;20033;-67
2022/07/06 08:21:35;;;;;;;3.60;1.10;;;;;;;;;;5034159;28;20036;-68
2022/07/06 08:24:01;;;;;;;3.90;1.17;;;;;;;;;;5024040;28;20104;-68
2022/07/06 08:26:27;;;;;;;2.47;0.85;;;;;;;;;;5014647;28;20561;-69
2022/07/06 08:28:53;;;;;;;1.92;0.85;;;;;;;;;;5014150;28;20029;-68
2022/07/06 08:31:19;;;;;;;2.25;0.68;;;;;;;;;;5014828;28;20463;-68
2022/07/06 08:33:44;;;;;;;5.45;0.85;;;;;;;;;;5014321;28;20034;-64
2022/07/06 08:36:10;;;;;;;5.20;0.75;;;;;;;;;;5014293;28;20030;-67
2022/07/06 08:38:35;;;;;;;2.15;0.90;;;;;;;;;;5014357;28;20472;-68
2022/07/06 08:41:02;;;;;;;5.30;0.65;;;;;;;;;;5020902;28;20109;-69
2022/07/06 08:43:27;;;;;;;1.55;0.68;;;;;;;;;;5034281;28;20540;-65
2022/07/06 08:45:54;;;;;;;3.53;0.95;;;;;;;;;;5034211;28;20021;-65
2022/07/06 08:48:23;;;;;;;8.63;1.00;;;;;;;;;;5033351;28;20028;-68
2022/07/06 08:50:49;;;;;;;4.88;0.93;;;;;;;;;;5034131;28;20075;-67
2022/07/06 08:53:17;;;;;;;9.93;1.13;;;;;;;;;;5034169;28;20548;-66
2022/07/06 08:55:42;;;;;;;2.95;0.80;;;;;;;;;;5033781;28;20029;-68
2022/07/06 08:58:09;;;;;;;3.17;0.80;;;;;;;;;;5033927;28;20094;-67
2022/07/06 09:00:35;;;;;;;3.75;1.00;;;;;;;;;;5033763;28;20033;-66
2022/07/06 09:03:01;;;;;;;2.85;1.10;;;;;;;;;;5033441;28;20045;-68
2022/07/06 09:05:28;;;;;;;1.48;0.63;;;;;;;;;;5033765;28;20029;-66
2022/07/06 09:07:55;;;;;;;4.97;0.80;;;;;;;;;;5033759;28;20045;-64
2022/07/06 09:10:22;;;;;;;2.92;0.95;;;;;;;;;;5033658;28;20114;-68
2022/07/06 09:12:47;;;;;;;3.40;0.90;;;;;;;;;;5033743;28;20035;-66
2022/07/06 09:15:13;;;;;;;3.75;1.00;;;;;;;;;;5033397;28;20033;-68
2022/07/06 09:17:41;;;;;;;2.83;1.00;;;;;;;;;;5033259;28;20017;-67
2022/07/06 09:20:12;;;;;;;3.22;1.00;;;;;;;;;;5028373;28;20032;-66
2022/07/06 09:22:39;;;;;;;3.95;0.85;;;;;;;;;;5028406;28;20529;-68
2022/07/06 09:25:07;;;;;;;6.57;1.10;;;;;;;;;;5016496;28;20034;-66
2022/07/06 09:27:49;;;;;;;4.38;1.10;;;;;;;;;;5013374;28;20044;-67
2022/07/06 09:30:16;;;;;;;3.55;1.00;;;;;;;;;;5013516;28;20037;-66
2022/07/06 09:32:44;;;;;;;2.80;0.90;;;;;;;;;;5013393;28;20034;-67
2022/07/06 09:35:29;;;;;;;6.82;1.17;;;;;;;;;;5013467;28;20483;-67
2022/07/06 09:38:11;;;;;;;4.22;1.10;;;;;;;;;;5013263;28;20040;-68
2022/07/06 09:40:39;;;;;;;3.38;0.80;;;;;;;;;;5013381;28;20093;-66
2022/07/06 09:43:09;;;;;;;2.05;0.93;;;;;;;;;;5013366;28;20029;-64
2022/07/06 09:45:38;;;;;;;3.72;1.00;;;;;;;;;;5013302;28;20028;-67
2022/07/06 09:48:13;;;;;;;3.78;1.02;;;;;;;;;;5012613;28;20365;-68
2022/07/06 09:50:46;;;;;;;4.25;0.90;;;;;;;;;;5013355;28;20026;-69
2022/07/06 09:53:13;;;;;;;2.08;0.70;;;;;;;;;;5026823;28;20421;-63
2022/07/06 09:55:53;;;;;;;1.85;0.65;;;;;;;;;;5032697;28;20029;-63
2022/07/06 09:58:20;;;;;;;4.60;0.70;;;;;;;;;;5032927;28;20029;-65
2022/07/06 10:00:47;;;;;;;3.30;0.90;;;;;;;;;;5032538;28;20414;-63
2022/07/06 10:03:13;;;;;;;6.25;0.93;;;;;;;;;;5032325;28;20475;-63
2022/07/06 10:05:41;;;;;;;3.95;1.10;;;;;;;;;;5032589;28;20096;-64
2022/07/06 10:08:11;;;;;;;9.60;1.88;;;;;;;;;;5027148;28;20022;-63
2022/07/06 10:10:38;;;;;;;4.88;1.05;;;;;;;;;;5012946;28;20055;-63
2022/07/06 10:13:07;;;;;;;3.53;0.70;;;;;;;;;;5013076;28;20025;-64
2022/07/06 10:15:35;;;;;;;15.25;2.75;;;;;;;;;;5012611;28;20037;-63
2022/07/06 10:18:03;;;;;;;7.13;1.42;;;;;;;;;;5012704;28;20030;-64
2022/07/06 10:20:31;;;;;;;6.88;1.50;;;;;;;;;;5014386;28;20030;-63
2022/07/06 10:22:59;;;;;;;2.97;0.90;;;;;;;;;;5032451;28;20544;-63
2022/07/06 10:25:25;;;;;;;7.00;1.65;;;;;;;;;;5032194;28;20071;-65
2022/07/06 10:27:51;;;;;;;11.55;2.40;;;;;;;;;;5032282;28;20526;-65
2022/07/06 10:30:17;;;;;;;7.15;1.55;;;;;;;;;;5031733;28;20104;-63
2022/07/06 10:32:45;;;;;;;4.78;1.40;;;;;;;;;;5023636;28;20149;-63
2022/07/06 10:35:12;;;;;;;5.65;0.70;;;;;;;;;;5012505;28;20037;-63
2022/07/06 10:37:38;;;;;;;3.30;0.80;;;;;;;;;;5016720;28;20022;-63
2022/07/06 10:42:55;;;;;;;9.02;1.33;;;;;;;;;;5032330;28;20028;-64
2022/07/06 10:45:46;;;;;;;4.47;0.77;;;;;;;;;;5031906;28;20021;-63
2022/07/06 10:48:12;;;;;;;1.90;0.70;;;;;;;;;;5032092;28;20029;-64
2022/07/06 10:50:41;;;;;;;1.60;0.50;;;;;;;;;;5032384;28;20037;-64
2022/07/06 10:53:17;;;;;;;2.05;0.60;;;;;;;;;;5035261;28;20079;-63
2022/07/06 10:55:49;;;;;;;2.97;0.60;;;;;;;;;;5023704;28;20475;-63
2022/07/06 10:58:14;;;;;;;6.75;0.80;;;;;;;;;;5031942;28;20387;-64
2022/07/06 11:00:53;;;;;;;3.28;0.90;;;;;;;;;;5031612;28;20021;-63
2022/07/06 11:03:44;;;;;;;4.47;0.68;;;;;;;;;;5031954;28;20034;-63
2022/07/06 11:06:22;;;;;;;2.22;0.60;;;;;;;;;;5035821;28;20055;-63
2022/07/06 11:08:50;;;;;;;4.65;0.80;;;;;;;;;;5035687;28;20028;-63
2022/07/06 11:11:20;;;;;;;2.35;0.60;;;;;;;;;;5035780;28;20025;-65
2022/07/06 11:13:49;;;;;;;5.25;0.82;;;;;;;;;;5035508;28;20029;-65
2022/07/06 11:16:16;;;;;;;3.80;0.80;;;;;;;;;;5035619;28;20038;-64
2022/07/06 11:18:48;;;;;;;1.80;0.70;;;;;;;;;;5035693;28;20490;-65
2022/07/06 11:21:18;;;;;;;0.95;0.50;;;;;;;;;;5035595;28;20033;-64
2022/07/06 11:23:46;;;;;;;4.95;0.82;;;;;;;;;;5035560;28;20025;-65
2022/07/06 11:26:13;;;;;;;3.95;0.70;;;;;;;;;;5035391;28;20053;-66
2022/07/06 11:28:38;;;;;;;3.55;0.80;;;;;;;;;;5035444;28;20033;-65
2022/07/06 11:31:04;;;;;;;1.63;0.63;;;;;;;;;;5035578;28;20025;-66
2022/07/06 11:33:30;;;;;;;5.80;0.60;;;;;;;;;;5035306;28;20087;-65
2022/07/06 11:36:15;;;;;;;1.52;0.60;;;;;;;;;;5035310;28;20033;-65
2022/07/06 11:38:41;;;;;;;1.98;0.60;;;;;;;;;;5035281;28;20136;-66
2022/07/06 11:41:07;;;;;;;3.28;0.50;;;;;;;;;;5035286;28;20081;-66
2022/07/06 11:43:32;;;;;;;1.20;0.63;;;;;;;;;;5035177;28;20029;-66
2022/07/06 11:45:58;;;;;;;6.43;0.60;;;;;;;;;;5035179;28;20053;-66
2022/07/06 11:48:24;;;;;;;5.10;0.60;;;;;;;;;;5035043;28;20108;-66
2022/07/06 11:51:00;;;;;;;1.55;0.32;;;;;;;;;;5023799;28;20084;-66
2022/07/06 11:53:26;;;;;;;0.77;0.52;;;;;;;;;;5015196;28;20021;-66
2022/07/06 11:55:52;;;;;;;1.50;0.70;;;;;;;;;;5015129;28;20372;-66
2022/07/06 11:58:23;;;;;;;4.20;0.77;;;;;;;;;;5023107;28;20029;-65
2022/07/06 12:01:12;;;;;;;3.25;0.70;;;;;;;;;;5034963;28;20033;-66
2022/07/06 12:03:37;;;;;;;3.80;0.50;;;;;;;;;;5022897;28;20076;-66
2022/07/06 12:06:12;;;;;;;1.75;0.50;;;;;;;;;;5034815;28;20054;-66
2022/07/06 12:08:46;;;;;;;5.40;0.60;;;;;;;;;;5030900;28;20025;-66
2022/07/06 12:11:18;;;;;;;1.35;0.47;;;;;;;;;;5034735;28;20380;-66
2022/07/06 12:13:44;;;;;;;3.92;0.60;;;;;;;;;;5034549;28;20053;-65
2022/07/06 12:16:11;;;;;;;2.33;0.65;;;;;;;;;;5034017;28;20485;-67
2022/07/06 12:18:38;;;;;;;1.85;0.50;;;;;;;;;;5034529;28;20041;-66
2022/07/06 12:21:06;;;;;;;1.92;0.50;;;;;;;;;;5034456;28;20436;-66
2022/07/06 12:23:46;;;;;;;2.67;0.60;;;;;;;;;;5034240;28;20029;-66
2022/07/06 12:26:14;;;;;;;8.23;1.02;;;;;;;;;;5034278;28;20033;-67
2022/07/06 12:28:39;;;;;;;1.65;0.50;;;;;;;;;;5034370;28;20513;-66
2022/07/06 12:31:06;;;;;;;0.95;0.38;;;;;;;;;;5034456;28;20108;-66
2022/07/06 12:33:31;;;;;;;2.42;0.68;;;;;;;;;;5022368;28;20095;-63
2022/07/06 12:36:08;;;;;;;2.70;0.63;;;;;;;;;;5023748;28;20491;-65
2022/07/06 12:38:33;;;;;;;3.50;0.60;;;;;;;;;;5023810;28;20061;-65
2022/07/06 12:41:02;;;;;;;2.55;0.73;;;;;;;;;;5021643;28;20046;-65
2022/07/06 12:43:38;;;;;;;1.20;0.50;;;;;;;;;;5023603;28;20088;-65
2022/07/06 12:46:23;;;;;;;1.42;0.40;;;;;;;;;;5022908;28;20018;-66
2022/07/06 12:48:56;;;;;;;2.65;0.50;;;;;;;;;;5024971;28;20106;-66
2022/07/06 12:51:22;;;;;;;1.58;0.60;;;;;;;;;;5027516;28;20029;-65
2022/07/06 12:53:48;;;;;;;1.27;0.50;;;;;;;;;;5033949;28;20467;-66
2022/07/06 12:56:14;;;;;;;2.25;0.50;;;;;;;;;;5033621;28;20116;-65
2022/07/06 12:58:57;;;;;;;2.25;0.60;;;;;;;;;;5033986;28;20029;-64
2022/07/06 13:01:22;;;;;;;1.77;0.40;;;;;;;;;;5033861;28;20041;-65
2022/07/06 13:03:53;;;;;;;4.45;0.60;;;;;;;;;;5033605;28;20036;-65
2022/07/06 13:06:34;;;;;;;2.22;0.70;;;;;;;;;;5033387;28;20029;-64
2022/07/06 13:08:59;;;;;;;;;;;;;;;;;;5034305;28;20112;-65
2022/07/06 13:11:25;;;;;;;1.08;0.40;;;;;;;;;;5033516;28;19944;-64
2022/07/06 13:13:50;;;;;;;1.13;0.70;;;;;;;;;;5033340;28;20026;-66
2022/07/06 13:16:16;;;;;;;2.33;0.60;;;;;;;;;;5033452;28;20032;-65
2022/07/06 13:18:42;;;;;;;2.20;0.73;;;;;;;;;;5033328;28;20029;-65
2022/07/06 13:21:08;;;;;;;0.93;0.50;;;;;;;;;;5033387;28;20022;-65
2022/07/06 13:23:33;;;;;;;4.20;0.60;;;;;;;;;;5017752;28;20420;-66
2022/07/06 13:25:59;;;;;;;3.63;0.60;;;;;;;;;;5012837;28;20022;-65
2022/07/06 13:28:24;;;;;;;4.80;0.50;;;;;;;;;;5012653;28;20099;-65
2022/07/06 13:30:50;;;;;;;2.22;0.70;;;;;;;;;;5013476;28;20468;-65
2022/07/06 13:33:15;;;;;;;2.10;0.50;;;;;;;;;;5017276;28;20387;-65
2022/07/06 13:35:41;;;;;;;3.85;0.70;;;;;;;;;;5032738;28;20035;-67
2022/07/06 13:38:06;;;;;;;1.35;0.50;;;;;;;;;;5033103;28;20021;-65
2022/07/06 13:40:34;;;;;;;3.28;0.50;;;;;;;;;;5032850;28;20493;-65
2022/07/06 13:43:00;;;;;;;2.70;0.57;;;;;;;;;;5032861;28;20418;-63
2022/07/06 13:45:25;;;;;;;1.38;0.50;;;;;;;;;;5033023;28;20028;-64
2022/07/06 13:47:51;;;;;;;0.93;0.50;;;;;;;;;;5032852;28;20479;-66
2022/07/06 13:50:17;;;;;;;1.52;0.57;;;;;;;;;;5032863;28;20030;-64
2022/07/06 13:52:42;;;;;;;4.72;0.90;;;;;;;;;;5032816;28;20029;-65
2022/07/06 13:55:09;;;;;;;2.10;0.88;;;;;;;;;;5032562;28;20103;-66
2022/07/06 13:57:35;;;;;;;2.28;1.00;;;;;;;;;;5032683;28;20021;-65
2022/07/06 14:00:00;;;;;;;2.33;0.60;;;;;;;;;;5032722;28;20025;-65
2022/07/06 14:02:26;;;;;;;4.15;0.80;;;;;;;;;;5032386;28;20103;-66
2022/07/06 14:04:51;;;;;;;1.35;0.70;;;;;;;;;;5032554;28;20033;-66
2022/07/06 14:07:17;;;;;;;1.38;0.60;;;;;;;;;;5032462;28;20066;-65
2022/07/06 14:09:42;;;;;;;1.20;0.65;;;;;;;;;;5014065;28;20117;-66
2022/07/06 14:12:08;;;;;;;4.97;0.68;;;;;;;;;;5012702;28;20029;-65
2022/07/06 14:14:34;;;;;;;3.45;0.60;;;;;;;;;;5012639;28;20034;-66
2022/07/06 14:16:59;;;;;;;3.33;0.60;;;;;;;;;;5012890;28;20087;-67
2022/07/06 14:19:26;;;;;;;5.88;0.85;;;;;;;;;;5012737;28;20060;-66
2022/07/06 14:21:51;;;;;;;1.15;0.60;;;;;;;;;;5021230;28;20037;-65
2022/07/06 14:24:17;;;;;;;2.83;0.70;;;;;;;;;;5032490;28;20021;-66
2022/07/06 14:26:42;;;;;;;2.90;0.70;;;;;;;;;;5032462;28;20471;-65
2022/07/06 14:29:08;;;;;;;2.38;1.15;;;;;;;;;;5032108;28;20033;-66
2022/07/06 14:31:33;;;;;;;1.42;0.52;;;;;;;;;;5032261;28;20053;-65
2022/07/06 14:33:59;;;;;;;4.65;0.80;;;;;;;;;;5032079;28;20080;-66
2022/07/06 14:36:24;;;;;;;3.42;0.85;;;;;;;;;;5032181;28;20037;-66
2022/07/06 14:38:50;;;;;;;2.38;0.65;;;;;;;;;;5032882;28;20181;-65
2022/07/06 14:41:15;;;;;;;9.18;0.88;;;;;;;;;;5038922;28;20029;-65
2022/07/06 14:43:41;;;;;;;3.80;0.60;;;;;;;;;;5038662;28;20108;-65
2022/07/06 14:46:07;;;;;;;1.48;0.70;;;;;;;;;;5038772;28;20036;-66
2022/07/06 14:48:32;;;;;;;1.65;0.40;;;;;;;;;;5038866;28;20084;-65
2022/07/06 14:50:58;;;;;;;2.58;0.57;;;;;;;;;;5038256;28;20414;-66